createdAt,value
2019-05-14T00:01:51.662Z,81.70
2019-05-14T00:04:22.013Z,81.70
2019-05-14T00:06:51.942Z,82.10
2019-05-14T00:09:21.635Z,82.80
2019-05-14T00:11:51.222Z,83.80
2019-05-14T00:14:22.109Z,83.90
2019-05-14T00:16:51.481Z,83.30
2019-05-14T00:19:21.580Z,85.00
2019-05-14T00:21:51.436Z,85.80
2019-05-14T00:24:21.729Z,87.70
2019-05-14T00:26:51.720Z,89.40
2019-05-14T00:29:21.975Z,90.60
2019-05-14T00:31:51.761Z,91.50
2019-05-14T00:34:21.445Z,92.10
2019-05-14T00:36:52.502Z,93.20
2019-05-14T00:39:21.781Z,93.60
2019-05-14T00:41:51.241Z,94.60
2019-05-14T00:44:21.615Z,95.30
2019-05-14T00:46:51.631Z,96.20
2019-05-14T00:49:21.261Z,96.80
2019-05-14T00:51:51.946Z,97.70
2019-05-14T00:54:21.624Z,98.10
2019-05-14T00:56:52.126Z,99.40
2019-05-14T00:59:21.738Z,99.90
2019-05-14T01:01:51.747Z,99.90
2019-05-14T01:04:22.237Z,99.90
2019-05-14T01:06:51.642Z,99.90
2019-05-14T01:09:21.845Z,99.90
2019-05-14T01:11:51.368Z,99.90
2019-05-14T01:14:21.138Z,99.90
2019-05-14T01:16:51.391Z,99.90
2019-05-14T01:19:21.404Z,99.90
2019-05-14T01:21:51.603Z,99.90
2019-05-14T01:24:21.616Z,99.90
2019-05-14T01:26:52.310Z,99.90
2019-05-14T01:29:22.006Z,99.90
2019-05-14T01:31:52.001Z,99.90
2019-05-14T01:34:21.616Z,99.90
2019-05-14T01:36:52.772Z,99.90
2019-05-14T01:39:21.376Z,99.90
2019-05-14T01:41:51.714Z,99.90
2019-05-14T01:44:21.460Z,99.90
2019-05-14T01:46:51.257Z,99.90
2019-05-14T01:49:22.124Z,99.90
2019-05-14T01:51:51.293Z,99.90
2019-05-14T01:54:21.193Z,99.90
2019-05-14T01:56:51.497Z,99.90
2019-05-14T01:59:21.322Z,99.90
2019-05-14T02:01:51.765Z,99.90
2019-05-14T02:04:22.094Z,99.90
2019-05-14T02:06:51.620Z,99.90
2019-05-14T02:09:21.558Z,99.90
2019-05-14T02:11:51.894Z,99.90
2019-05-14T02:14:22.056Z,99.90
2019-05-14T02:16:51.269Z,99.90
2019-05-14T02:19:22.171Z,99.90
2019-05-14T02:21:51.401Z,99.90
2019-05-14T02:24:21.773Z,99.90
2019-05-14T02:26:51.454Z,99.90
2019-05-14T02:29:21.438Z,99.90
2019-05-14T02:31:50.800Z,99.90
2019-05-14T02:34:20.133Z,99.90
2019-05-14T02:36:49.768Z,99.90
2019-05-14T02:39:19.606Z,99.90
2019-05-14T02:41:49.894Z,99.90
2019-05-14T02:44:19.194Z,99.90
2019-05-14T02:46:50.578Z,99.90
2019-05-14T02:49:19.556Z,99.90
2019-05-14T02:51:50.467Z,99.90
2019-05-14T02:54:20.306Z,99.90
2019-05-14T02:56:49.713Z,99.90
2019-05-14T02:59:19.631Z,99.90
2019-05-14T03:01:50.333Z,99.90
2019-05-14T03:04:19.927Z,99.90
2019-05-14T03:06:49.824Z,99.90
2019-05-14T03:09:20.369Z,99.90
2019-05-14T03:11:50.010Z,99.90
2019-05-14T03:14:19.733Z,99.90
2019-05-14T03:16:49.764Z,99.90
2019-05-14T03:19:19.526Z,99.90
2019-05-14T03:21:50.157Z,99.90
2019-05-14T03:24:19.838Z,99.90
2019-05-14T03:26:50.217Z,99.90
2019-05-14T03:29:19.824Z,99.90
2019-05-14T03:31:52.627Z,99.90
2019-05-14T03:34:22.153Z,99.90
2019-05-14T03:36:52.512Z,99.90
2019-05-14T03:39:23.685Z,99.90
2019-05-14T03:41:52.900Z,99.90
2019-05-14T03:44:25.043Z,99.90
2019-05-14T03:47:00.774Z,99.90
2019-05-14T03:49:28.723Z,99.90
2019-05-14T03:52:00.082Z,99.90
2019-05-14T03:54:29.781Z,99.90
2019-05-14T03:57:00.305Z,99.90
2019-05-14T03:59:29.289Z,99.90
2019-05-14T04:01:59.600Z,99.90
2019-05-14T04:04:30.055Z,99.90
2019-05-14T04:07:01.786Z,99.90
2019-05-14T04:09:33.252Z,99.90
2019-05-14T04:12:04.594Z,99.90
2019-05-14T04:14:34.276Z,99.90
2019-05-14T04:17:10.010Z,99.90
2019-05-14T04:19:39.172Z,99.90
2019-05-14T04:22:06.335Z,99.90
2019-05-14T04:24:41.538Z,99.90
2019-05-14T04:27:13.321Z,99.90
2019-05-14T04:29:42.768Z,99.90
2019-05-14T04:32:11.997Z,99.90
2019-05-14T04:34:41.331Z,99.90
2019-05-14T04:37:12.113Z,99.90
2019-05-14T04:39:41.096Z,99.90
2019-05-14T04:42:10.089Z,99.90
2019-05-14T04:44:40.352Z,99.90
2019-05-14T04:47:25.210Z,99.90
2019-05-14T04:49:40.363Z,99.90
2019-05-14T04:52:10.168Z,99.90
2019-05-14T04:54:39.756Z,99.90
2019-05-14T04:57:10.235Z,99.90
2019-05-14T04:59:40.154Z,99.90
2019-05-14T05:02:09.775Z,99.90
2019-05-14T05:04:41.216Z,99.90
2019-05-14T05:07:10.193Z,99.90
2019-05-14T05:09:40.093Z,99.90
2019-05-14T05:12:09.417Z,99.90
2019-05-14T05:14:39.090Z,99.90
2019-05-14T05:17:09.290Z,99.90
2019-05-14T05:19:39.950Z,99.90
2019-05-14T05:22:12.066Z,99.90
2019-05-14T05:24:41.057Z,99.90
2019-05-14T05:27:10.036Z,99.90
2019-05-14T05:29:39.340Z,99.90
2019-05-14T05:32:08.898Z,99.90
2019-05-14T05:34:38.838Z,99.90
2019-05-14T05:37:08.756Z,99.90
2019-05-14T05:39:38.690Z,99.90
2019-05-14T05:42:09.150Z,99.90
2019-05-14T05:44:39.847Z,99.90
2019-05-14T05:47:09.330Z,99.90
2019-05-14T05:49:38.417Z,99.90
2019-05-14T05:52:08.744Z,99.90
2019-05-14T05:54:42.237Z,99.90
2019-05-14T05:57:12.357Z,99.90
2019-05-14T05:59:41.497Z,99.90
2019-05-14T06:02:11.140Z,99.90
2019-05-14T06:04:40.040Z,99.90
2019-05-14T06:07:09.048Z,99.90
2019-05-14T06:09:38.391Z,99.90
2019-05-14T06:12:08.653Z,99.90
2019-05-14T06:14:38.387Z,99.90
2019-05-14T06:17:16.078Z,99.90
2019-05-14T06:19:45.862Z,99.90
2019-05-14T06:22:15.380Z,99.90
2019-05-14T06:24:44.299Z,99.90
2019-05-14T06:27:14.009Z,99.90
2019-05-14T06:29:42.991Z,99.90
2019-05-14T06:32:15.581Z,99.90
2019-05-14T06:34:44.549Z,99.90
2019-05-14T06:37:13.446Z,99.90
2019-05-14T06:39:42.506Z,99.90
2019-05-14T06:45:03.783Z,99.90
2019-05-14T06:47:39.463Z,99.90
2019-05-14T06:50:08.756Z,99.90
2019-05-14T06:52:38.591Z,99.90
2019-05-14T06:55:09.673Z,99.90
2019-05-14T06:57:47.899Z,99.90
2019-05-14T07:00:18.956Z,99.90
2019-05-14T07:02:49.398Z,99.90
2019-05-14T07:05:28.138Z,99.90
2019-05-14T07:07:59.699Z,99.90
2019-05-14T07:10:28.757Z,99.90
2019-05-14T07:13:00.580Z,99.90
2019-05-14T07:15:34.992Z,99.90
2019-05-14T07:18:10.139Z,99.90
2019-05-14T07:20:39.384Z,99.90
2019-05-14T07:23:08.539Z,99.90
2019-05-14T07:25:40.332Z,99.90
2019-05-14T07:28:12.332Z,99.90
2019-05-14T07:30:43.890Z,99.90
2019-05-14T07:33:14.299Z,99.90
2019-05-14T07:35:43.097Z,99.90
2019-05-14T07:38:12.056Z,99.90
2019-05-14T07:40:51.637Z,99.90
2019-05-14T07:43:20.700Z,99.90
2019-05-14T07:45:49.582Z,99.90
2019-05-14T07:48:19.058Z,99.90
2019-05-14T07:50:54.306Z,99.90
2019-05-14T07:53:38.505Z,99.90
2019-05-14T07:56:02.817Z,99.90
2019-05-14T07:58:32.841Z,99.90
2019-05-14T08:01:09.348Z,99.90
2019-05-14T08:03:42.123Z,99.90
2019-05-14T08:06:11.067Z,99.90
2019-05-14T08:08:41.950Z,99.90
2019-05-14T08:11:14.246Z,99.90
2019-05-14T08:13:49.093Z,99.90
2019-05-14T08:16:18.690Z,99.90
2019-05-14T08:18:49.061Z,99.90
2019-05-14T08:21:19.281Z,99.90
2019-05-14T08:23:48.627Z,99.90
2019-05-14T08:26:19.201Z,99.90
2019-05-14T08:28:51.447Z,99.90
2019-05-14T08:31:30.067Z,99.90
2019-05-14T08:34:04.903Z,99.90
2019-05-14T08:36:31.173Z,99.90
2019-05-14T08:39:03.226Z,99.90
2019-05-14T08:41:34.795Z,99.90
2019-05-14T08:44:08.692Z,99.90
2019-05-14T08:46:38.860Z,99.90
2019-05-14T08:49:12.418Z,99.90
2019-05-14T08:51:41.507Z,99.90
2019-05-14T08:54:18.761Z,99.90
2019-05-14T08:56:49.135Z,99.90
2019-05-14T08:59:19.573Z,99.90
2019-05-14T09:01:58.689Z,99.90
2019-05-14T09:04:22.331Z,99.90
2019-05-14T09:06:52.181Z,99.90
2019-05-14T09:09:25.426Z,99.90
2019-05-14T09:11:54.225Z,99.90
2019-05-14T09:14:23.089Z,99.90
2019-05-14T09:16:59.909Z,99.90
2019-05-14T09:19:28.584Z,99.90
2019-05-14T09:21:58.948Z,99.90
2019-05-14T09:24:29.505Z,99.90
2019-05-14T09:27:00.757Z,99.90
2019-05-14T09:29:30.818Z,99.60
2019-05-14T09:31:59.741Z,98.90
2019-05-14T09:34:29.178Z,97.00
2019-05-14T09:37:10.278Z,96.90
2019-05-14T09:39:43.684Z,94.80
2019-05-14T09:42:12.558Z,95.00
2019-05-14T09:44:41.471Z,93.50
2019-05-14T09:47:10.558Z,90.90
2019-05-14T09:49:39.438Z,89.90
2019-05-14T09:52:09.023Z,88.80
2019-05-14T09:54:41.471Z,88.40
2019-05-14T09:57:10.982Z,86.20
2019-05-14T09:59:47.941Z,87.20
2019-05-14T10:02:17.098Z,89.80
2019-05-14T10:04:48.676Z,90.60
2019-05-14T10:07:19.606Z,91.60
2019-05-14T10:09:49.589Z,91.80
2019-05-14T10:12:50.727Z,91.40
2019-05-14T10:15:17.603Z,91.90
2019-05-14T10:17:49.787Z,90.60
2019-05-14T10:20:40.455Z,88.50
2019-05-14T10:22:58.560Z,87.20
2019-05-14T10:25:32.980Z,84.90
2019-05-14T10:28:02.018Z,82.50
2019-05-14T10:30:31.437Z,81.80
2019-05-14T10:33:09.645Z,83.10
2019-05-14T10:35:34.204Z,84.50
2019-05-14T10:38:03.090Z,86.70
2019-05-14T10:40:31.931Z,82.30
2019-05-14T10:43:13.815Z,78.80
2019-05-14T10:45:42.744Z,80.00
2019-05-14T10:48:11.660Z,81.40
2019-05-14T10:50:55.797Z,77.70
2019-05-14T10:53:15.885Z,73.90
2019-05-14T10:55:48.633Z,74.70
2019-05-14T10:58:19.494Z,75.00
2019-05-14T11:00:50.691Z,70.20
2019-05-14T11:03:24.287Z,65.50
2019-05-14T11:05:58.588Z,65.10
2019-05-14T11:08:29.343Z,65.20
2019-05-14T11:11:03.577Z,66.20
2019-05-14T11:13:29.231Z,67.90
2019-05-14T11:15:59.636Z,65.80
2019-05-14T11:18:29.349Z,67.40
2019-05-14T11:21:18.870Z,63.90
2019-05-14T11:23:34.452Z,62.80
2019-05-14T11:26:03.331Z,63.10
2019-05-14T11:28:32.449Z,60.50
2019-05-14T11:31:01.372Z,57.60
2019-05-14T11:33:30.349Z,56.00
2019-05-14T11:35:59.167Z,56.80
2019-05-14T11:38:36.669Z,57.90
2019-05-14T11:40:58.943Z,57.60
2019-05-14T11:43:28.668Z,57.70
2019-05-14T11:45:59.355Z,58.70
2019-05-14T11:48:28.756Z,58.50
2019-05-14T11:50:59.502Z,58.40
2019-05-14T11:53:28.217Z,58.10
2019-05-14T11:55:58.687Z,58.40
2019-05-14T11:58:29.491Z,58.60
2019-05-14T12:00:58.546Z,57.50
2019-05-14T12:03:28.566Z,55.30
2019-05-14T12:05:58.590Z,55.90
2019-05-14T12:08:28.791Z,57.00
2019-05-14T12:10:59.281Z,57.40
2019-05-14T12:13:32.125Z,56.60
2019-05-14T12:15:59.189Z,57.80
2019-05-14T12:18:29.230Z,57.70
2019-05-14T12:20:59.385Z,57.70
2019-05-14T12:23:29.789Z,58.10
2019-05-14T12:25:58.929Z,58.70
2019-05-14T12:28:29.148Z,58.80
2019-05-14T12:30:58.523Z,58.60
2019-05-14T12:33:30.707Z,59.40
2019-05-14T12:36:00.504Z,58.60
2019-05-14T12:38:29.682Z,58.30
2019-05-14T12:40:58.909Z,57.90
2019-05-14T12:43:28.447Z,58.40
2019-05-14T12:45:59.309Z,55.70
2019-05-14T12:48:29.800Z,56.00
2019-05-14T12:50:59.545Z,55.60
2019-05-14T12:53:28.951Z,54.80
2019-05-14T12:55:57.994Z,54.60
2019-05-14T12:58:28.554Z,54.00
2019-05-14T13:00:59.401Z,55.60
2019-05-14T13:03:28.589Z,55.50
2019-05-14T13:05:58.599Z,55.00
2019-05-14T13:08:27.719Z,55.00
2019-05-14T13:10:58.659Z,52.80
2019-05-14T13:13:29.086Z,52.50
2019-05-14T13:15:57.705Z,51.70
2019-05-14T13:18:29.045Z,52.70
2019-05-14T13:20:57.408Z,51.90
2019-05-14T13:23:29.010Z,52.70
2019-05-14T13:25:58.978Z,52.80
2019-05-14T13:28:29.066Z,52.50
2019-05-14T13:30:59.708Z,51.70
2019-05-14T13:33:28.861Z,51.90
2019-05-14T13:35:59.468Z,51.60
2019-05-14T13:38:30.865Z,52.20
2019-05-14T13:40:59.821Z,52.50
2019-05-14T13:43:30.530Z,52.60
2019-05-14T13:45:59.802Z,53.00
2019-05-14T13:48:29.718Z,53.40
2019-05-14T13:50:59.031Z,53.00
2019-05-14T13:53:29.513Z,52.00
2019-05-14T13:55:59.268Z,50.40
2019-05-14T13:58:28.737Z,49.90
2019-05-14T14:00:59.253Z,49.00
2019-05-14T14:03:29.382Z,50.00
2019-05-14T14:05:59.514Z,49.80
2019-05-14T14:08:29.358Z,50.20
2019-05-14T14:11:02.718Z,50.10
2019-05-14T14:13:31.528Z,49.20
2019-05-14T14:16:00.034Z,49.50
2019-05-14T14:18:29.385Z,49.90
2019-05-14T14:20:58.564Z,49.30
2019-05-14T14:23:31.035Z,50.30
2019-05-14T14:25:59.519Z,48.00
2019-05-14T14:28:28.901Z,48.70
2019-05-14T14:30:58.206Z,47.50
2019-05-14T14:33:28.955Z,47.30
2019-05-14T14:35:58.529Z,47.30
2019-05-14T14:38:29.351Z,47.40
2019-05-14T14:40:58.427Z,48.30
2019-05-14T14:43:29.538Z,48.00
2019-05-14T14:45:59.392Z,48.00
2019-05-14T14:48:30.284Z,48.50
2019-05-14T14:50:59.370Z,49.30
2019-05-14T14:53:42.960Z,48.00
2019-05-14T14:56:00.327Z,48.90
2019-05-14T14:58:29.564Z,48.10
2019-05-14T15:00:59.434Z,48.80
2019-05-14T15:03:29.558Z,49.60
2019-05-14T15:05:58.923Z,49.80
2019-05-14T15:08:29.348Z,49.90
2019-05-14T15:10:59.296Z,49.30
2019-05-14T15:13:28.766Z,49.50
2019-05-14T15:16:00.847Z,49.70
2019-05-14T15:18:28.841Z,49.10
2019-05-14T15:20:58.857Z,49.30
2019-05-14T15:23:28.599Z,48.70
2019-05-14T15:25:58.946Z,49.60
2019-05-14T15:28:28.341Z,49.90
2019-05-14T15:30:59.582Z,50.20
2019-05-14T15:33:29.368Z,50.10
2019-05-14T15:35:58.625Z,50.40
2019-05-14T15:38:30.251Z,51.20
2019-05-14T15:40:59.665Z,50.80
2019-05-14T15:43:28.691Z,51.40
2019-05-14T15:45:58.939Z,51.10
2019-05-14T15:48:28.557Z,50.20
2019-05-14T15:50:59.922Z,50.70
2019-05-14T15:53:29.047Z,50.40
2019-05-14T15:55:58.253Z,49.30
2019-05-14T15:58:29.914Z,49.10
2019-05-14T16:01:00.847Z,50.70
2019-05-14T16:03:28.404Z,50.10
2019-05-14T16:05:59.905Z,50.60
2019-05-14T16:08:29.638Z,50.10
2019-05-14T16:11:00.315Z,50.30
2019-05-14T16:13:29.636Z,49.70
2019-05-14T16:15:58.707Z,50.20
2019-05-14T16:18:29.136Z,48.50
2019-05-14T16:20:59.276Z,48.50
2019-05-14T16:23:28.615Z,48.70
2019-05-14T16:25:59.044Z,48.30
2019-05-14T16:28:28.876Z,49.10
2019-05-14T16:30:59.076Z,49.20
2019-05-14T16:33:29.196Z,48.80
2019-05-14T16:35:58.524Z,49.30
2019-05-14T16:38:28.570Z,48.90
2019-05-14T16:40:59.674Z,49.30
2019-05-14T16:43:32.131Z,50.20
2019-05-14T16:45:59.822Z,49.40
2019-05-14T16:48:29.138Z,49.50
2019-05-14T16:50:58.405Z,50.30
2019-05-14T16:53:28.761Z,49.30
2019-05-14T16:55:58.006Z,48.60
2019-05-14T16:58:29.048Z,49.10
2019-05-14T17:00:58.859Z,49.30
2019-05-14T17:03:29.809Z,49.00
2019-05-14T17:05:59.060Z,49.90
2019-05-14T17:08:28.519Z,49.10
2019-05-14T17:10:59.027Z,49.40
2019-05-14T17:13:28.619Z,50.10
2019-05-14T17:15:58.932Z,49.20
2019-05-14T17:18:28.763Z,50.10
2019-05-14T17:20:59.421Z,49.60
2019-05-14T17:23:28.462Z,49.70
2019-05-14T17:25:58.050Z,50.60
2019-05-14T17:28:28.676Z,50.70
2019-05-14T17:30:57.901Z,50.20
2019-05-14T17:33:29.178Z,51.20
2019-05-14T17:35:58.595Z,52.00
2019-05-14T17:38:31.318Z,52.10
2019-05-14T17:41:00.234Z,52.30
2019-05-14T17:43:31.414Z,51.90
2019-05-14T17:46:00.504Z,52.40
2019-05-14T17:48:30.317Z,52.10
2019-05-14T17:50:59.252Z,52.20
2019-05-14T17:53:29.126Z,52.80
2019-05-14T17:55:59.307Z,53.00
2019-05-14T17:58:28.795Z,52.70
2019-05-14T18:00:58.222Z,52.20
2019-05-14T18:03:29.032Z,52.70
2019-05-14T18:05:58.318Z,52.80
2019-05-14T18:08:30.026Z,52.30
2019-05-14T18:11:01.528Z,52.50
2019-05-14T18:13:29.854Z,52.60
2019-05-14T18:15:58.783Z,51.90
2019-05-14T18:18:29.170Z,52.80
2019-05-14T18:20:58.634Z,52.50
2019-05-14T18:23:28.923Z,52.50
2019-05-14T18:26:08.087Z,52.30
2019-05-14T18:28:30.212Z,52.20
2019-05-14T18:30:59.239Z,51.70
2019-05-14T18:33:31.329Z,51.40
2019-05-14T18:35:59.197Z,52.00
2019-05-14T18:38:29.098Z,51.70
2019-05-14T18:40:58.576Z,51.50
2019-05-14T18:43:28.934Z,52.10
2019-05-14T18:45:58.825Z,51.40
2019-05-14T18:48:29.121Z,51.80
2019-05-14T18:50:59.436Z,52.10
2019-05-14T18:53:29.367Z,52.20
2019-05-14T18:55:59.620Z,52.40
2019-05-14T18:58:29.456Z,52.50
2019-05-14T19:00:58.741Z,52.60
2019-05-14T19:03:28.587Z,53.00
2019-05-14T19:05:58.669Z,53.00
2019-05-14T19:08:28.831Z,53.50
2019-05-14T19:10:59.425Z,53.30
2019-05-14T19:13:28.626Z,53.00
2019-05-14T19:15:59.182Z,53.10
2019-05-14T19:18:30.022Z,53.10
2019-05-14T19:20:59.323Z,53.50
2019-05-14T19:23:31.742Z,53.60
2019-05-14T19:26:00.785Z,53.60
2019-05-14T19:28:30.494Z,54.00
2019-05-14T19:31:00.541Z,53.70
2019-05-14T19:33:29.785Z,54.00
2019-05-14T19:35:58.954Z,54.70
2019-05-14T19:38:28.006Z,54.60
2019-05-14T19:40:57.124Z,54.80
2019-05-14T19:43:26.052Z,55.00
2019-05-14T19:45:55.204Z,55.00
2019-05-14T19:48:24.258Z,55.10
2019-05-14T19:50:53.170Z,54.20
2019-05-14T19:53:22.343Z,54.70
2019-05-14T19:55:51.475Z,54.80
2019-05-14T19:58:20.995Z,55.60
2019-05-14T20:00:50.041Z,54.50
2019-05-14T20:03:19.048Z,54.80
2019-05-14T20:05:48.538Z,55.20
2019-05-14T20:08:19.665Z,55.20
2019-05-14T20:10:49.132Z,55.30
2019-05-14T20:13:20.568Z,55.60
2019-05-14T20:15:49.871Z,55.40
2019-05-14T20:18:19.044Z,55.20
2019-05-14T20:20:49.236Z,55.60
2019-05-14T20:23:18.630Z,55.90
2019-05-14T20:25:48.269Z,56.50
2019-05-14T20:28:18.992Z,56.30
2019-05-14T20:30:49.296Z,56.40
2019-05-14T20:33:19.156Z,56.80
2019-05-14T20:35:48.868Z,57.00
2019-05-14T20:38:18.458Z,56.90
2019-05-14T20:40:48.674Z,57.10
2019-05-14T20:43:18.647Z,57.10
2019-05-14T20:45:48.976Z,57.40
2019-05-14T20:48:18.804Z,57.50
2019-05-14T20:50:48.161Z,57.70
2019-05-14T20:53:18.607Z,58.40
2019-05-14T20:55:48.083Z,58.20
2019-05-14T20:58:19.745Z,58.40
2019-05-14T21:00:48.469Z,58.40
2019-05-14T21:03:18.730Z,58.60
2019-05-14T21:05:49.070Z,59.30
2019-05-14T21:08:18.906Z,58.70
2019-05-14T21:10:49.389Z,58.70
2019-05-14T21:13:18.597Z,58.90
2019-05-14T21:15:48.359Z,58.70
2019-05-14T21:18:18.914Z,58.70
2019-05-14T21:20:48.801Z,58.70
2019-05-14T21:23:18.381Z,59.50
2019-05-14T21:25:48.319Z,59.30
2019-05-14T21:28:17.492Z,59.70
2019-05-14T21:30:48.596Z,60.00
2019-05-14T21:33:18.583Z,61.40
2019-05-14T21:35:48.457Z,60.40
2019-05-14T21:38:19.131Z,60.60
2019-05-14T21:40:49.904Z,60.90
2019-05-14T21:43:19.771Z,61.10
2019-05-14T21:45:49.031Z,61.90
2019-05-14T21:48:19.991Z,62.30
2019-05-14T21:50:49.057Z,62.90
2019-05-14T21:53:19.131Z,63.30
2019-05-14T21:55:48.158Z,63.60
2019-05-14T21:58:19.564Z,64.10
2019-05-14T22:00:52.453Z,64.20
2019-05-14T22:03:21.822Z,64.80
2019-05-14T22:05:51.652Z,65.00
2019-05-14T22:08:21.044Z,65.80
2019-05-14T22:10:50.175Z,65.30
2019-05-14T22:13:20.342Z,65.90
2019-05-14T22:15:49.706Z,66.30
2019-05-14T22:18:20.837Z,66.80
2019-05-14T22:20:49.665Z,67.00
2019-05-14T22:23:21.238Z,67.80
2019-05-14T22:25:49.200Z,68.20
2019-05-14T22:28:18.981Z,68.50
2019-05-14T22:30:48.473Z,69.30
2019-05-14T22:33:19.098Z,69.70
2019-05-14T22:35:48.567Z,70.50
2019-05-14T22:38:20.242Z,70.50
2019-05-14T22:40:48.656Z,71.30
2019-05-14T22:43:18.410Z,71.30
2019-05-14T22:45:48.135Z,72.80
2019-05-14T22:48:18.653Z,72.00
2019-05-14T22:50:48.585Z,72.10
2019-05-14T22:53:17.848Z,72.70
2019-05-14T22:55:48.977Z,72.20
2019-05-14T22:58:25.136Z,72.70
2019-05-14T23:01:01.759Z,73.00
2019-05-14T23:03:21.060Z,73.60
2019-05-14T23:05:49.180Z,74.30
2019-05-14T23:08:18.485Z,74.00
2019-05-14T23:10:49.152Z,74.20
2019-05-14T23:13:18.614Z,74.60
2019-05-14T23:15:48.199Z,75.60
2019-05-14T23:18:18.105Z,75.30
2019-05-14T23:20:49.201Z,75.50
2019-05-14T23:23:18.503Z,76.30
2019-05-14T23:25:47.641Z,76.70
2019-05-14T23:28:16.584Z,76.90
2019-05-14T23:30:48.020Z,77.30
2019-05-14T23:33:18.888Z,77.70
2019-05-14T23:35:48.272Z,77.90
2019-05-14T23:38:19.031Z,78.40
2019-05-14T23:40:49.327Z,78.70
2019-05-14T23:43:18.692Z,78.60
2019-05-14T23:45:47.522Z,79.90
2019-05-14T23:48:18.686Z,79.70
2019-05-14T23:50:48.824Z,79.90
2019-05-14T23:53:18.444Z,79.20
2019-05-14T23:55:48.156Z,80.40
2019-05-14T23:58:20.260Z,80.20
